Valparaiso, FL (32580)

11:02 PM CDT on July 24, 2016 (GMT -0500)
Pear Tree Observatory | | Change Station

Elev 80 ft 30.51 °N, 86.50 °W | Updated 15 seconds ago

Partly Cloudy
Partly Cloudy
79.0 °F
Feels Like 83 °F
N
0.0
Wind Variable Wind from NNE
Gusts 0.0 mph

Today
High -- | Low -- °F
--% Chance of Precip.
Yesterday
High -- | Low -- °F
Precip. -- in
Pressure 30.03 in
Visibility 10.0 miles
Clouds Few 2600 ft
Few 15000 ft
Heat Index 83 °F
Dew Point 75 °F
Humidity 88%
Rainfall 0.42 in
Snow Depth Not available.
5:59 AM 7:45 PM
Waning Gibbous, 70% visible
METAR KVPS 250355Z 15007KT 10SM FEW026 FEW150 29/23 A3001 RMK AO2A SLP168 T02890230 $
Pressure 30.03 in
Visibility 10.0 miles
Clouds Few 2600 ft
Few 15000 ft
Heat Index 83 °F
Dew Point 75 °F
Humidity 88%
Rainfall 0.42 in
Snow Depth Not available.
5:59 AM 7:45 PM
Waning Gibbous, 70% visible
METAR KVPS 250355Z 15007KT 10SM FEW026 FEW150 29/23 A3001 RMK AO2A SLP168 T02890230 $

10-Day Weather Forecast

Almanac

Astronomy

Jul. 24, 2016 Rise Set
Actual Time
Civil Twilight
Nautical Twilight
Astronomical Twilight
Moon
Length of Visible Light
Length of Day
Tomorrow will be .
, % of the Moon is Illuminated

Today's Extremes

State Highs State Lows

Community

WunderPhotos

Upload Photos

1,927,264 photos uploaded!

WunderBlog® & News

Nearby

Air Quality

  Air Quality AQ Index Pollutant
Not available.

Snow Depth

Station Depth Elevation

Earthquake Activity

City Distance Mag. Time & Date
Minimum magnitude displayed is 2.5.

Coastal Water Temperatures

Place Temperature

Stations

Nearby Weather Stations

Station Location Temp. Windchill Dew Point Humidity Wind Precip. Elev Updated Type
                   

Watches & Warnings

There are currently no watches in effect.